Pocatello Regional Airport Pocatello US
ICAO: KPIH
IATA: PIH
Category: Medium
Scheduled Services: Yes

Elevation: 4452 ft
TransAlt. 18000 ft.

Airport Communications:
ASOS:135.625
CLNC DEL:126.55
SALT LAKE CITY CNTR:128.35
CTAF:119.1
BOISE RDO:122.35
GND:121.9
BOISE RDO:122.35
TWR:119.1
UNICOM:122.95

KPIH Zoom In..

If you have problems with the map follow the link
https://www.worldairports.se/pages/airport.php?
ICAO=KPIH

Runways:

(A) RW 03 length 9060 ft width 150 ft
---- / hdg 31

(B) RW 17 length 7150 ft width 100 ft
---- / hdg 166

(C) RW 21 length 9060 ft width 150 ft
ILS 110.30 / hdg 211

(D) RW 35 length 7150 ft width 100 ft
---- / hdg 346

Location; KPIH
Day. 12 / Time. 10.53 Zulu
* Altimeter: 30.08
* Temperature: 03° c. 37.4°f.
* Wind from: 200° Speed 14 kn.
Dewpoint: 00° c.
Visibility: 10 Statute Miles.
Clouds: Overcast 2000 ft.
Conditions: Light Rain.

KPIH 121053Z AUTO 20014KT 10SM -RA OVC020 03/00 A3008 RMK AO2 RAB16 SLP195 P0000 T00280000


Wind From 200°
Speed 14 kn.

 
 
jpsmedia worldairports.se 2019   terms of use